Wednesday, March 21, 2018, 8:38 PM EDT
Back to Local

KFKL, Franklin, Venango Regional Airport

Location: Franklin, PA, United States Lat: 41.383
Local Time: 8:38 PM EDT ( 0:38 GMT) Lon: -79.867
Time Zone: US/Eastern Elev: 1538 ft

Show me the last for .
Show Decoded

2018-03-21 19:56 METAR KFKL 212356Z AUTO 35009G14KT 320V020 10SM CLR M01/M07 A2989 RMK AO2 SLP141
                 T10111072 10022 21011 53031 FZRANO =
2018-03-21 18:56 METAR KFKL 212256Z AUTO 34007KT 10SM CLR 00/M07 A2986 RMK AO2 SLP129 T00001072
                 FZRANO =
2018-03-21 17:56 METAR KFKL 212156Z AUTO 34007G14KT 10SM BKN120 02/M07 A2982 RMK AO2 SLP116
                 T00171067 FZRANO =
2018-03-21 16:56 METAR KFKL 212056Z AUTO 35008KT 320V020 10SM CLR 02/M07 A2979 RMK AO2 SLP106
                 T00171072 53013 FZRANO =
2018-03-21 15:56 METAR KFKL 211956Z AUTO 01007KT 10SM CLR 02/M09 A2977 RMK AO2 SLP098 T00221089
                 FZRANO =
2018-03-21 14:56 METAR KFKL 211856Z AUTO 35007KT 320V030 10SM CLR 02/M10 A2975 RMK AO2 SLP092
                 T00171100 FZRANO =
2018-03-21 13:56 METAR KFKL 211756Z AUTO 01008KT 10SM FEW065 02/M11 A2975 RMK AO2 SLP092 60000
                 T00171111 10017 21039 51010 FZRANO =
2018-03-21 12:56 METAR KFKL 211656Z AUTO VRB05KT 10SM BKN070 01/M11 A2975 RMK AO2 SLP089
                 T00061106 FZRANO =
2018-03-21 10:56 METAR KFKL 211456Z AUTO 02007KT 10SM OVC036 M02/M08 A2972 RMK AO2 SNE05 SLP081
                 P0000 60000 T10171078 53006 FZRANO =
2018-03-21 09:56 METAR KFKL 211356Z AUTO VRB04KT 9SM -SN SCT026 OVC032 M02/M06 A2971 RMK AO2
                 SLP076 P0000 T10171056 FZRANO =
2018-03-21 09:25 METAR KFKL 211325Z AUTO 01003KT 9SM -SN OVC030 M03/M06 A2971 RMK AO2 P0000
                 FZRANO =
2018-03-21 09:14 METAR KFKL 211314Z AUTO VRB03KT 8SM -SN BKN028 OVC035 M03/M06 A2970 RMK AO2
                 P0000 FZRANO =
2018-03-21 08:56 METAR KFKL 211256Z AUTO VRB03KT 10SM -SN SCT031 OVC040 M03/M05 A2971 RMK AO2
                 UPB00E04B23E29SNE00B04E23B56 SLP076 P0000 T10331050 FZRANO =
2018-03-21 07:56 METAR KFKL 211156Z AUTO 00000KT 9SM -SN FEW014 OVC041 M04/M05 A2970 RMK AO2
                 SLP075 P0005 60016 7//// T10391050 11028 21039 52002 FZRANO =
2018-03-21 07:53 METAR KFKL 211153Z AUTO 00000KT 9SM -SN SCT014 SCT023 OVC041 M04/M05 A2970 RMK
                 AO2 P0004 FZRANO =
2018-03-21 07:45 METAR KFKL 211145Z AUTO 00000KT 3SM -SN BR BKN014 BKN023 OVC039 M04/M05 A2970
                 RMK AO2 P0004 FZRANO =
2018-03-21 07:41 METAR KFKL 211141Z AUTO 00000KT 1 1/4SM -SN BR BKN014 BKN023 OVC037 M04/M05
                 A2970 RMK AO2 P0004 FZRANO =
2018-03-21 07:37 METAR KFKL 211137Z AUTO 00000KT 3/4SM -SN BR BKN014 OVC019 M04/M05 A2970 RMK AO2
                 P0004 FZRANO =
2018-03-21 07:26 METAR KFKL 211126Z AUTO 06003KT 1SM -SN BR FEW008 OVC014 M04/M05 A2970 RMK AO2
                 P0004 FZRANO =
2018-03-21 07:22 METAR KFKL 211122Z AUTO 06004KT 1 1/4SM -SN BR OVC012 M04/M05 A2970 RMK AO2
                 P0004 FZRANO =
2018-03-21 07:06 METAR KFKL 211106Z AUTO 05004KT 1SM -SN BR OVC010 M04/M05 A2970 RMK AO2 CIG
                 006V013 P0000 FZRANO =
2018-03-21 06:56 METAR KFKL 211056Z AUTO 04004KT 1SM -SN BR OVC008 M04/M05 A2970 RMK AO2 CIG
                 006V011 SLP073 P0005 T10391050 FZRANO =
2018-03-21 06:05 METAR KFKL 211005Z AUTO 04006KT 1 1/4SM -SN BR OVC006 M04/M04 A2969 RMK AO2 CIG
                 003V009 P0001 FZRANO =
2018-03-21 05:56 METAR KFKL 210956Z AUTO 04006KT 3/4SM -SN BR OVC006 M04/M04 A2970 RMK AO2 CIG
                 003V009 SLP071 P0003 T10391044 FZRANO =
2018-03-21 05:31 METAR KFKL 210931Z AUTO 03006KT 3/4SM -SN BR OVC008 M03/M04 A2970 RMK AO2 CIG
                 007V011 P0002 FZRANO =
2018-03-21 05:27 METAR KFKL 210927Z AUTO 03007KT 1SM -SN BR OVC010 M03/M04 A2970 RMK AO2 P0002
                 FZRANO =
2018-03-21 04:56 METAR KFKL 210856Z AUTO 05004KT 3/4SM -SN BR OVC010 M03/M05 A2970 RMK AO2 SLP072
                 P0002 60003 T10331050 55010 FZRANO =
2018-03-21 04:48 METAR KFKL 210848Z AUTO 05006KT 1SM -SN BR OVC010 M03/M05 A2969 RMK AO2 P0001
                 FZRANO =
2018-03-21 04:14 METAR KFKL 210814Z AUTO 06010G17KT 1 3/4SM -SN BR FEW008 OVC014 M03/M05 A2968
                 RMK AO2 P0000 FZRANO =
2018-03-21 04:04 METAR KFKL 210804Z AUTO 06008G15KT 2SM -SN BR FEW006 OVC014 M03/M04 A2968 RMK
                 AO2 P0000 FZRANO =
2018-03-21 03:56 METAR KFKL 210756Z AUTO 05010KT 1 3/4SM -SN BR FEW007 OVC018 M03/M04 A2969 RMK
                 AO2 SLP068 P0001 T10331044 FZRANO =
2018-03-21 03:32 METAR KFKL 210732Z AUTO 05009KT 1 3/4SM -SN BR FEW005 OVC022 M03/M04 A2970 RMK
                 AO2 P0001 FZRANO =
2018-03-21 03:05 METAR KFKL 210705Z AUTO 05007KT 2SM -SN BR FEW007 OVC022 M03/M04 A2971 RMK AO2
                 P0000 FZRANO =
2018-03-21 02:56 METAR KFKL 210656Z AUTO 07008KT 1 3/4SM -SN BR FEW007 OVC020 M03/M04 A2972 RMK
                 AO2 VIS 1 1/2V2 1/2 SLP079 P0000 T10331044 FZRANO =
2018-03-21 02:25 METAR KFKL 210625Z AUTO 08009KT 060V130 1 3/4SM -SN BR BKN016 OVC021 M03/M04
                 A2972 RMK AO2 P0000 FZRANO =
2018-03-21 02:10 METAR KFKL 210610Z AUTO 09009KT 2 1/2SM -SN BR OVC019 M03/M04 A2972 RMK AO2 VIS
                 1 3/4V4 P0000 FZRANO =
2018-03-21 01:56 METAR KFKL 210556Z AUTO 09008KT 3SM -SN BR OVC016 M03/M05 A2973 RMK AO2
                 RAE0458SNB0458 SLP082 P0000 60000 T10281050 10022 21028 50002 FZRANO =
2018-03-21 01:28 METAR KFKL 210528Z AUTO 12010KT 4SM -SN SCT013 BKN026 OVC034 M02/M07 A2973 RMK
                 AO2 RAE0458SNB0458 P0000 FZRANO =
2018-03-21 00:56 METAR KFKL 210456Z AUTO 08011G18KT 10SM -RA SCT035 BKN042 OVC050 01/M12 A2973
                 RMK AO2 RAB27 SLP081 P0000 T00061117 400441033 FZRANO =
2018-03-20 23:56 METAR KFKL 210356Z AUTO 08008KT 10SM BKN042 OVC050 01/M13 A2972 RMK AO2 SLP081
                 T00111133 FZRANO =
2018-03-20 22:56 METAR KFKL 210256Z AUTO 08011G15KT 10SM OVC040 02/M15 A2972 RMK AO2 SLP079
                 T00171150 53001 FZRANO =
2018-03-20 21:56 METAR KFKL 210156Z AUTO 07008KT 10SM OVC044 02/M14 A2971 RMK AO2 SLP076
                 T00221139 FZRANO =
2018-03-20 20:56 METAR KFKL 210056Z AUTO 09006KT 10SM OVC046 02/M14 A2971 RMK AO2 SLP078
                 T00221144 FZRANO =

Support USWX by starting your Amazon purchase here.